ASA1461 LFLL-ELLX
Flight info
| Callsign | ASA1461 |
|---|---|
| Flight time | 0h 54m |
| Altitude | 18000 |
| Route | ALURA A6 DJL T37 KASON G21 RLP/N0390F190 R11 EPL/N0455F300 G21 GIVOR |
| Aircraft | B738/M-SDE2E3FGHIRWXY/LB1 |
Departure
| Time | 2026-05-07 10:27 |
|---|---|
| Airport | Lyon Saint-Exupéry Airport (LFLL) |
Arrival
| Time | 2026-05-07 11:21 |
|---|---|
| Airport | Luxembourg-Findel International Airport (ELLX) |
| Time | Latitude | Longitude | Altitude | Speed | Heading |
|---|---|---|---|---|---|
| 2026-05-07 10:05 | 45.71493 | 5.08400 | 805 ft | 0 kts | 355° |
| 2026-05-07 10:23 | 45.71497 | 5.08400 | 805 ft | 2 kts | 358° |
| 2026-05-07 10:24 | 45.71522 | 5.08433 | 805 ft | 8 kts | 91° |
| 2026-05-07 10:24 | 45.71460 | 5.08497 | 807 ft | 14 kts | 158° |
| 2026-05-07 10:24 | 45.71345 | 5.08533 | 810 ft | 19 kts | 175° |
| 2026-05-07 10:24 | 45.71199 | 5.08553 | 813 ft | 22 kts | 169° |
| 2026-05-07 10:25 | 45.71106 | 5.08710 | 814 ft | 23 kts | 103° |
| 2026-05-07 10:25 | 45.71077 | 5.08941 | 819 ft | 22 kts | 85° |
| 2026-05-07 10:25 | 45.71127 | 5.09022 | 820 ft | 0 kts | 357° |
| 2026-05-07 10:26 | 45.71225 | 5.09011 | 819 ft | 55 kts | 355° |
| 2026-05-07 10:26 | 45.71961 | 5.08922 | 809 ft | 153 kts | 355° |
| 2026-05-07 10:26 | 45.73151 | 5.08804 | 1408 ft | 187 kts | 356° |
| 2026-05-07 10:27 | 45.74542 | 5.08659 | 2291 ft | 214 kts | 355° |
| 2026-05-07 10:27 | 45.76044 | 5.08451 | 3179 ft | 230 kts | 354° |
| 2026-05-07 10:27 | 45.77669 | 5.08237 | 4093 ft | 247 kts | 354° |
| 2026-05-07 10:27 | 45.79409 | 5.08021 | 5156 ft | 258 kts | 354° |
| 2026-05-07 10:28 | 45.81194 | 5.07801 | 6306 ft | 264 kts | 354° |
| 2026-05-07 10:28 | 45.83006 | 5.07579 | 7449 ft | 269 kts | 353° |
| 2026-05-07 10:28 | 45.84864 | 5.07351 | 8569 ft | 273 kts | 353° |
| 2026-05-07 10:28 | 45.86755 | 5.07119 | 9651 ft | 278 kts | 352° |
| 2026-05-07 10:29 | 45.88676 | 5.06883 | 10529 ft | 289 kts | 352° |
| 2026-05-07 10:29 | 45.90789 | 5.06619 | 10936 ft | 317 kts | 352° |
| 2026-05-07 10:29 | 45.93035 | 5.06336 | 11461 ft | 338 kts | 351° |
| 2026-05-07 10:30 | 45.97794 | 5.05398 | 13079 ft | 355 kts | 349° |
| 2026-05-07 10:30 | 46.00247 | 5.04909 | 13970 ft | 360 kts | 349° |
| 2026-05-07 10:30 | 46.02752 | 5.04415 | 14852 ft | 365 kts | 349° |
| 2026-05-07 10:30 | 46.05270 | 5.03916 | 15685 ft | 370 kts | 349° |
| 2026-05-07 10:31 | 46.07805 | 5.03413 | 16545 ft | 372 kts | 348° |
| 2026-05-07 10:31 | 46.10376 | 5.02903 | 17348 ft | 376 kts | 348° |
| 2026-05-07 10:31 | 46.12926 | 5.02397 | 17931 ft | 377 kts | 348° |
| 2026-05-07 10:31 | 46.15549 | 5.01876 | 17986 ft | 381 kts | 348° |
| 2026-05-07 10:32 | 46.18181 | 5.01354 | 18000 ft | 380 kts | 348° |
| 2026-05-07 10:32 | 46.20788 | 5.00836 | 18000 ft | 379 kts | 348° |
| 2026-05-07 10:32 | 46.23359 | 5.00325 | 17999 ft | 378 kts | 348° |
| 2026-05-07 10:32 | 46.25974 | 4.99803 | 17999 ft | 378 kts | 348° |
| 2026-05-07 10:33 | 46.28579 | 4.99284 | 18000 ft | 378 kts | 348° |
| 2026-05-07 10:33 | 46.31157 | 4.98769 | 17999 ft | 378 kts | 348° |
| 2026-05-07 10:33 | 46.33759 | 4.98257 | 17999 ft | 378 kts | 348° |
| 2026-05-07 10:33 | 46.36379 | 4.97776 | 18000 ft | 378 kts | 349° |
| 2026-05-07 10:34 | 46.38978 | 4.97305 | 17999 ft | 378 kts | 348° |
| 2026-05-07 10:34 | 46.41579 | 4.96826 | 17999 ft | 378 kts | 348° |
| 2026-05-07 10:34 | 46.44076 | 4.96364 | 18000 ft | 378 kts | 348° |
| 2026-05-07 10:34 | 46.46284 | 4.95952 | 18005 ft | 385 kts | 353° |
| 2026-05-07 10:35 | 46.48981 | 4.95681 | 18003 ft | 395 kts | 359° |
| 2026-05-07 10:35 | 46.51721 | 4.95809 | 17997 ft | 392 kts | 5° |
| 2026-05-07 10:35 | 46.54424 | 4.96238 | 17999 ft | 390 kts | 7° |
| 2026-05-07 10:35 | 46.57109 | 4.96699 | 18000 ft | 390 kts | 6° |
| 2026-05-07 10:36 | 46.59773 | 4.97148 | 18000 ft | 390 kts | 7° |
| 2026-05-07 10:36 | 46.62478 | 4.97621 | 17999 ft | 390 kts | 7° |
| 2026-05-07 10:36 | 46.65187 | 4.98111 | 17999 ft | 390 kts | 7° |
| 2026-05-07 10:36 | 46.67858 | 4.98600 | 17999 ft | 390 kts | 7° |
| 2026-05-07 10:37 | 46.70574 | 4.99100 | 18000 ft | 390 kts | 7° |
| 2026-05-07 10:37 | 46.73251 | 4.99595 | 18000 ft | 390 kts | 7° |
| 2026-05-07 10:37 | 46.75916 | 5.00090 | 18000 ft | 390 kts | 7° |
| 2026-05-07 10:37 | 46.78623 | 5.00594 | 18000 ft | 390 kts | 7° |
| 2026-05-07 10:38 | 46.81314 | 5.01097 | 18000 ft | 390 kts | 7° |
| 2026-05-07 10:38 | 46.83992 | 5.01597 | 17999 ft | 390 kts | 7° |
| 2026-05-07 10:38 | 46.86693 | 5.02103 | 17999 ft | 390 kts | 7° |
| 2026-05-07 10:38 | 46.89341 | 5.02600 | 18000 ft | 390 kts | 7° |
| 2026-05-07 10:39 | 46.92064 | 5.03111 | 18000 ft | 390 kts | 7° |
| 2026-05-07 10:39 | 46.94732 | 5.03612 | 18000 ft | 390 kts | 7° |
| 2026-05-07 10:39 | 46.97423 | 5.04119 | 17999 ft | 390 kts | 7° |
| 2026-05-07 10:39 | 47.00098 | 5.04622 | 18000 ft | 390 kts | 7° |
| 2026-05-07 10:40 | 47.02798 | 5.05132 | 18000 ft | 390 kts | 7° |
| 2026-05-07 10:40 | 47.05471 | 5.05636 | 17999 ft | 390 kts | 7° |
| 2026-05-07 10:40 | 47.08186 | 5.06149 | 17999 ft | 390 kts | 7° |
| 2026-05-07 10:40 | 47.10864 | 5.06656 | 18000 ft | 390 kts | 7° |
| 2026-05-07 10:41 | 47.13543 | 5.07163 | 18000 ft | 390 kts | 7° |
| 2026-05-07 10:41 | 47.16215 | 5.07669 | 17999 ft | 390 kts | 7° |
| 2026-05-07 10:41 | 47.18916 | 5.08182 | 18000 ft | 390 kts | 7° |
| 2026-05-07 10:41 | 47.21615 | 5.08694 | 18000 ft | 390 kts | 7° |
| 2026-05-07 10:42 | 47.24312 | 5.09042 | 17995 ft | 390 kts | 359° |
| 2026-05-07 10:42 | 47.26989 | 5.08515 | 18000 ft | 390 kts | 343° |
| 2026-05-07 10:42 | 47.29439 | 5.06900 | 18002 ft | 390 kts | 327° |
| 2026-05-07 10:42 | 47.31624 | 5.04530 | 18000 ft | 391 kts | 322° |
| 2026-05-07 10:43 | 47.33747 | 5.02084 | 17999 ft | 390 kts | 322° |
| 2026-05-07 10:43 | 47.35911 | 4.99664 | 17998 ft | 390 kts | 323° |
| 2026-05-07 10:43 | 47.38061 | 4.97256 | 18000 ft | 390 kts | 322° |
| 2026-05-07 10:43 | 47.40225 | 4.94807 | 17999 ft | 390 kts | 322° |
| 2026-05-07 10:44 | 47.42368 | 4.92373 | 17999 ft | 390 kts | 322° |
| 2026-05-07 10:44 | 47.44507 | 4.89940 | 17999 ft | 390 kts | 322° |
| 2026-05-07 10:44 | 47.46647 | 4.87503 | 17999 ft | 390 kts | 322° |
| 2026-05-07 10:44 | 47.48794 | 4.85053 | 17999 ft | 390 kts | 322° |
| 2026-05-07 10:45 | 47.51082 | 4.82862 | 17995 ft | 390 kts | 334° |
| 2026-05-07 10:45 | 47.53653 | 4.81622 | 18000 ft | 390 kts | 351° |
| 2026-05-07 10:45 | 47.56336 | 4.81526 | 18002 ft | 390 kts | 7° |
| 2026-05-07 10:45 | 47.58962 | 4.82507 | 17999 ft | 390 kts | 22° |
| 2026-05-07 10:46 | 47.61301 | 4.84515 | 18001 ft | 390 kts | 39° |
| 2026-05-07 10:46 | 47.63282 | 4.87177 | 18001 ft | 391 kts | 44° |
| 2026-05-07 10:46 | 47.65269 | 4.89970 | 17999 ft | 390 kts | 43° |
| 2026-05-07 10:46 | 47.67258 | 4.92673 | 17998 ft | 390 kts | 42° |
| 2026-05-07 10:47 | 47.69262 | 4.95398 | 17999 ft | 390 kts | 43° |
| 2026-05-07 10:47 | 47.71240 | 4.98112 | 18000 ft | 390 kts | 43° |
| 2026-05-07 10:47 | 47.73233 | 5.00853 | 18000 ft | 390 kts | 43° |
| 2026-05-07 10:47 | 47.75229 | 5.03599 | 17999 ft | 390 kts | 43° |
| 2026-05-07 10:48 | 47.77216 | 5.06338 | 17999 ft | 390 kts | 43° |
| 2026-05-07 10:48 | 47.79206 | 5.09084 | 17999 ft | 390 kts | 43° |
| 2026-05-07 10:48 | 47.81164 | 5.11791 | 17999 ft | 390 kts | 43° |
| 2026-05-07 10:48 | 47.83148 | 5.14536 | 17999 ft | 390 kts | 43° |
| 2026-05-07 10:49 | 47.85150 | 5.17308 | 17999 ft | 390 kts | 43° |
| 2026-05-07 10:49 | 47.87109 | 5.20025 | 17999 ft | 389 kts | 43° |
| 2026-05-07 10:49 | 47.89075 | 5.22779 | 17999 ft | 389 kts | 44° |
| 2026-05-07 10:49 | 47.90919 | 5.25742 | 18000 ft | 389 kts | 50° |
| 2026-05-07 10:50 | 47.92582 | 5.28874 | 18000 ft | 389 kts | 52° |
| 2026-05-07 10:50 | 47.94244 | 5.32081 | 17999 ft | 389 kts | 52° |
| 2026-05-07 10:50 | 47.95916 | 5.35278 | 17999 ft | 389 kts | 52° |
| 2026-05-07 10:50 | 47.97572 | 5.38462 | 17999 ft | 389 kts | 52° |
| 2026-05-07 10:51 | 47.99194 | 5.41610 | 17999 ft | 389 kts | 52° |
| 2026-05-07 10:51 | 48.00856 | 5.44846 | 17999 ft | 389 kts | 52° |
| 2026-05-07 10:51 | 48.02490 | 5.48033 | 17999 ft | 389 kts | 52° |
| 2026-05-07 10:51 | 48.04121 | 5.51221 | 17999 ft | 389 kts | 52° |
| 2026-05-07 10:52 | 48.05767 | 5.54443 | 17999 ft | 389 kts | 52° |
| 2026-05-07 10:52 | 48.07395 | 5.57636 | 17999 ft | 389 kts | 52° |
| 2026-05-07 10:52 | 48.09053 | 5.60892 | 17999 ft | 389 kts | 52° |
| 2026-05-07 10:52 | 48.10687 | 5.64105 | 18000 ft | 389 kts | 52° |
| 2026-05-07 10:53 | 48.12315 | 5.67310 | 17999 ft | 389 kts | 53° |
| 2026-05-07 10:53 | 48.13956 | 5.70544 | 17999 ft | 389 kts | 53° |
| 2026-05-07 10:53 | 48.15586 | 5.73763 | 17999 ft | 389 kts | 53° |
| 2026-05-07 10:53 | 48.17212 | 5.76975 | 17999 ft | 389 kts | 53° |
| 2026-05-07 10:54 | 48.18834 | 5.80184 | 17999 ft | 389 kts | 53° |
| 2026-05-07 10:54 | 48.20467 | 5.83419 | 17999 ft | 389 kts | 53° |
| 2026-05-07 10:54 | 48.22095 | 5.86648 | 17999 ft | 389 kts | 53° |
| 2026-05-07 10:54 | 48.23725 | 5.89883 | 17999 ft | 389 kts | 53° |
| 2026-05-07 10:55 | 48.25355 | 5.93125 | 17999 ft | 389 kts | 53° |
| 2026-05-07 10:55 | 48.26981 | 5.96361 | 17999 ft | 389 kts | 53° |
| 2026-05-07 10:55 | 48.28615 | 5.99616 | 17999 ft | 389 kts | 53° |
| 2026-05-07 10:55 | 48.30287 | 6.02809 | 17999 ft | 389 kts | 49° |
| 2026-05-07 10:56 | 48.32148 | 6.05737 | 17999 ft | 389 kts | 43° |
| 2026-05-07 10:56 | 48.34237 | 6.08242 | 18001 ft | 389 kts | 34° |
| 2026-05-07 10:56 | 48.36509 | 6.10450 | 17999 ft | 389 kts | 32° |
| 2026-05-07 10:56 | 48.38770 | 6.12636 | 18000 ft | 389 kts | 33° |
| 2026-05-07 10:57 | 48.41040 | 6.14870 | 17999 ft | 389 kts | 33° |
| 2026-05-07 10:57 | 48.43317 | 6.17101 | 17999 ft | 389 kts | 33° |
| 2026-05-07 10:57 | 48.45576 | 6.19305 | 18000 ft | 389 kts | 33° |
| 2026-05-07 10:57 | 48.47847 | 6.21520 | 17999 ft | 389 kts | 33° |
| 2026-05-07 10:58 | 48.50114 | 6.23733 | 18000 ft | 389 kts | 33° |
| 2026-05-07 10:58 | 48.52380 | 6.25946 | 18000 ft | 389 kts | 33° |
| 2026-05-07 10:58 | 48.54625 | 6.28139 | 17999 ft | 389 kts | 33° |
| 2026-05-07 10:58 | 48.56881 | 6.30347 | 17999 ft | 389 kts | 33° |
| 2026-05-07 10:59 | 48.59156 | 6.32574 | 17999 ft | 389 kts | 33° |
| 2026-05-07 10:59 | 48.61411 | 6.34784 | 17999 ft | 389 kts | 33° |
| 2026-05-07 10:59 | 48.63724 | 6.36953 | 17999 ft | 389 kts | 29° |
| 2026-05-07 10:59 | 48.66130 | 6.38806 | 17999 ft | 389 kts | 23° |
| 2026-05-07 11:00 | 48.68672 | 6.40181 | 18001 ft | 389 kts | 15° |
| 2026-05-07 11:00 | 48.71262 | 6.41230 | 18000 ft | 389 kts | 14° |
| 2026-05-07 11:00 | 48.73883 | 6.42294 | 17999 ft | 389 kts | 15° |
| 2026-05-07 11:00 | 48.76488 | 6.43376 | 17999 ft | 389 kts | 15° |
| 2026-05-07 11:01 | 48.79097 | 6.44447 | 17999 ft | 389 kts | 14° |
| 2026-05-07 11:01 | 48.81697 | 6.45504 | 17999 ft | 389 kts | 14° |
| 2026-05-07 11:01 | 48.84303 | 6.46561 | 17999 ft | 389 kts | 14° |
| 2026-05-07 11:01 | 48.86885 | 6.47609 | 17999 ft | 389 kts | 14° |
| 2026-05-07 11:02 | 48.89521 | 6.48679 | 17999 ft | 389 kts | 14° |
| 2026-05-07 11:02 | 48.92104 | 6.49727 | 17999 ft | 389 kts | 14° |
| 2026-05-07 11:02 | 48.94724 | 6.50791 | 17999 ft | 389 kts | 14° |
| 2026-05-07 11:02 | 48.97326 | 6.51848 | 17999 ft | 389 kts | 14° |
| 2026-05-07 11:03 | 48.99925 | 6.52905 | 17999 ft | 389 kts | 14° |
| 2026-05-07 11:03 | 49.02539 | 6.53970 | 17999 ft | 389 kts | 14° |
| 2026-05-07 11:03 | 49.05167 | 6.55041 | 18003 ft | 393 kts | 14° |
| 2026-05-07 11:03 | 49.07801 | 6.56115 | 17943 ft | 397 kts | 14° |
| 2026-05-07 11:04 | 49.10441 | 6.57193 | 17401 ft | 391 kts | 14° |
| 2026-05-07 11:04 | 49.13083 | 6.58273 | 16752 ft | 394 kts | 14° |
| 2026-05-07 11:04 | 49.15666 | 6.59330 | 16077 ft | 385 kts | 14° |
| 2026-05-07 11:04 | 49.18235 | 6.60383 | 15415 ft | 383 kts | 14° |
| 2026-05-07 11:05 | 49.20832 | 6.61203 | 14733 ft | 381 kts | 6° |
| 2026-05-07 11:05 | 49.23431 | 6.61212 | 14072 ft | 372 kts | 353° |
| 2026-05-07 11:05 | 49.25935 | 6.60301 | 13417 ft | 375 kts | 339° |
| 2026-05-07 11:05 | 49.28291 | 6.58746 | 12748 ft | 368 kts | 335° |
| 2026-05-07 11:06 | 49.30592 | 6.57138 | 12093 ft | 362 kts | 335° |
| 2026-05-07 11:06 | 49.32879 | 6.55584 | 11470 ft | 363 kts | 335° |
| 2026-05-07 11:06 | 49.35149 | 6.54033 | 11035 ft | 349 kts | 335° |
| 2026-05-07 11:06 | 49.37311 | 6.52544 | 10786 ft | 331 kts | 335° |
| 2026-05-07 11:07 | 49.39343 | 6.51144 | 10649 ft | 312 kts | 335° |
| 2026-05-07 11:07 | 49.41282 | 6.49805 | 10504 ft | 306 kts | 335° |
| 2026-05-07 11:07 | 49.43178 | 6.48494 | 10347 ft | 295 kts | 335° |
| 2026-05-07 11:07 | 49.45015 | 6.47223 | 10187 ft | 282 kts | 335° |
| 2026-05-07 11:08 | 49.46761 | 6.46013 | 9893 ft | 276 kts | 335° |
| 2026-05-07 11:08 | 49.48557 | 6.45091 | 9517 ft | 272 kts | 352° |
| 2026-05-07 11:08 | 49.50424 | 6.45226 | 9185 ft | 268 kts | 10° |
| 2026-05-07 11:08 | 49.52249 | 6.45655 | 8931 ft | 267 kts | 1° |
| 2026-05-07 11:09 | 49.54079 | 6.45111 | 8714 ft | 269 kts | 334° |
| 2026-05-07 11:09 | 49.55571 | 6.43456 | 8398 ft | 264 kts | 313° |
| 2026-05-07 11:09 | 49.56594 | 6.41154 | 8048 ft | 268 kts | 291° |
| 2026-05-07 11:09 | 49.56897 | 6.38354 | 7686 ft | 265 kts | 267° |
| 2026-05-07 11:10 | 49.56765 | 6.35550 | 7327 ft | 263 kts | 266° |
| 2026-05-07 11:10 | 49.56676 | 6.32722 | 6963 ft | 260 kts | 267° |
| 2026-05-07 11:10 | 49.56586 | 6.29984 | 6645 ft | 257 kts | 266° |
| 2026-05-07 11:10 | 49.56485 | 6.27215 | 6313 ft | 262 kts | 266° |
| 2026-05-07 11:11 | 49.56382 | 6.24414 | 5956 ft | 259 kts | 266° |
| 2026-05-07 11:11 | 49.56279 | 6.21673 | 5618 ft | 256 kts | 266° |
| 2026-05-07 11:11 | 49.56176 | 6.18965 | 5451 ft | 246 kts | 266° |
| 2026-05-07 11:11 | 49.56077 | 6.16358 | 5190 ft | 241 kts | 266° |
| 2026-05-07 11:12 | 49.55979 | 6.13817 | 4982 ft | 235 kts | 266° |
| 2026-05-07 11:12 | 49.55884 | 6.11358 | 4775 ft | 230 kts | 266° |
| 2026-05-07 11:12 | 49.55789 | 6.08911 | 4544 ft | 225 kts | 266° |
| 2026-05-07 11:12 | 49.55695 | 6.06522 | 4322 ft | 221 kts | 266° |
| 2026-05-07 11:13 | 49.55812 | 6.04215 | 4084 ft | 218 kts | 291° |
| 2026-05-07 11:13 | 49.56763 | 6.02475 | 3919 ft | 208 kts | 331° |
| 2026-05-07 11:13 | 49.58100 | 6.02004 | 3738 ft | 199 kts | 6° |
| 2026-05-07 11:13 | 49.59337 | 6.02831 | 3410 ft | 198 kts | 44° |
| 2026-05-07 11:14 | 49.60056 | 6.04605 | 3119 ft | 195 kts | 66° |
| 2026-05-07 11:14 | 49.60583 | 6.06527 | 2837 ft | 194 kts | 67° |
| 2026-05-07 11:14 | 49.61102 | 6.08423 | 2579 ft | 191 kts | 67° |
| 2026-05-07 11:14 | 49.61612 | 6.10291 | 2335 ft | 187 kts | 67° |
| 2026-05-07 11:15 | 49.62109 | 6.12110 | 2109 ft | 183 kts | 67° |
| 2026-05-07 11:15 | 49.62598 | 6.13903 | 1906 ft | 179 kts | 67° |
| 2026-05-07 11:15 | 49.63106 | 6.15575 | 1918 ft | 168 kts | 76° |
| 2026-05-07 11:15 | 49.62929 | 6.17314 | 2522 ft | 173 kts | 123° |
| 2026-05-07 11:16 | 49.62026 | 6.18592 | 2942 ft | 181 kts | 150° |
| 2026-05-07 11:16 | 49.60863 | 6.19459 | 2658 ft | 188 kts | 158° |
| 2026-05-07 11:16 | 49.59685 | 6.20062 | 2680 ft | 175 kts | 165° |
| 2026-05-07 11:16 | 49.58453 | 6.20333 | 2532 ft | 179 kts | 182° |
| 2026-05-07 11:17 | 49.57282 | 6.19910 | 2465 ft | 172 kts | 207° |
| 2026-05-07 11:17 | 49.56316 | 6.18761 | 2537 ft | 178 kts | 227° |
| 2026-05-07 11:17 | 49.55587 | 6.17238 | 2426 ft | 178 kts | 238° |
| 2026-05-07 11:17 | 49.54998 | 6.15559 | 2275 ft | 176 kts | 242° |
| 2026-05-07 11:18 | 49.54449 | 6.13916 | 2229 ft | 174 kts | 243° |
| 2026-05-07 11:18 | 49.53908 | 6.12223 | 2202 ft | 174 kts | 245° |
| 2026-05-07 11:18 | 49.53447 | 6.10499 | 2288 ft | 174 kts | 265° |
| 2026-05-07 11:18 | 49.54052 | 6.09094 | 2640 ft | 176 kts | 345° |
| 2026-05-07 11:19 | 49.55304 | 6.08862 | 2381 ft | 191 kts | 5° |
| 2026-05-07 11:19 | 49.56504 | 6.09488 | 2003 ft | 184 kts | 23° |
| 2026-05-07 11:19 | 49.57566 | 6.10519 | 1572 ft | 179 kts | 51° |
| 2026-05-07 11:19 | 49.58141 | 6.12169 | 1311 ft | 174 kts | 62° |
| 2026-05-07 11:20 | 49.58859 | 6.13605 | 1246 ft | 176 kts | 47° |
| 2026-05-07 11:20 | 49.59501 | 6.15161 | 1255 ft | 171 kts | 64° |
| 2026-05-07 11:20 | 49.60174 | 6.16686 | 1470 ft | 175 kts | 49° |
| 2026-05-07 11:20 | 49.61089 | 6.17895 | 1431 ft | 170 kts | 32° |
| 2026-05-07 11:21 | 49.61857 | 6.19109 | 1296 ft | 147 kts | 61° |
| 2026-05-07 11:21 | 49.62349 | 6.20397 | 1246 ft | 132 kts | 60° |
| 2026-05-07 11:21 | 49.62711 | 6.21352 | 1242 ft | 74 kts | 59° |
| 2026-05-07 11:21 | 49.62906 | 6.21861 | 1241 ft | 46 kts | 60° |
| 2026-05-07 11:22 | 49.63048 | 6.22126 | 1241 ft | 22 kts | 356° |
| 2026-05-07 11:22 | 49.63164 | 6.22021 | 1241 ft | 16 kts | 303° |
| 2026-05-07 11:22 | 49.63152 | 6.21892 | 1241 ft | 0 kts | 243° |